createdAt,value
2018-12-22T00:00:51.230Z,33.12
2018-12-22T00:01:51.217Z,32.93
2018-12-22T00:02:51.207Z,33.12
2018-12-22T00:03:51.196Z,33.23
2018-12-22T00:04:51.470Z,32.73
2018-12-22T00:05:51.179Z,32.93
2018-12-22T00:06:51.161Z,33.12
2018-12-22T00:07:51.150Z,33.33
2018-12-22T00:08:51.139Z,33.03
2018-12-22T00:09:51.128Z,32.82
2018-12-22T00:10:51.403Z,33.53
2018-12-22T00:11:51.106Z,32.82
2018-12-22T00:12:51.094Z,33.03
2018-12-22T00:13:51.083Z,33.33
2018-12-22T00:14:51.072Z,33.33
2018-12-22T00:15:51.062Z,33.33
2018-12-22T00:16:51.058Z,32.93
2018-12-22T00:17:51.038Z,32.93
2018-12-22T00:18:51.026Z,33.03
2018-12-22T00:19:51.018Z,33.53
2018-12-22T00:20:51.006Z,33.53
2018-12-22T00:21:50.993Z,33.12
2018-12-22T00:22:50.990Z,32.82
2018-12-22T00:23:50.973Z,32.93
2018-12-22T00:24:50.960Z,33.03
2018-12-22T00:25:50.949Z,32.93
2018-12-22T00:26:50.938Z,33.53
2018-12-22T00:27:50.929Z,33.53
2018-12-22T00:28:50.923Z,33.23
2018-12-22T00:29:50.905Z,33.53
2018-12-22T00:30:50.896Z,33.12
2018-12-22T00:31:50.884Z,33.62
2018-12-22T00:32:50.870Z,34.12
2018-12-22T00:33:50.861Z,33.43
2018-12-22T00:34:50.857Z,33.23
2018-12-22T00:35:50.838Z,34.12
2018-12-22T00:36:50.828Z,33.62
2018-12-22T00:37:50.815Z,33.43
2018-12-22T00:38:50.804Z,33.43
2018-12-22T00:39:50.793Z,33.73
2018-12-22T00:40:50.803Z,33.83
2018-12-22T00:41:50.772Z,33.73
2018-12-22T00:42:50.759Z,33.83
2018-12-22T00:43:50.749Z,33.03
2018-12-22T00:44:50.739Z,33.12
2018-12-22T00:45:50.725Z,34.12
2018-12-22T00:46:50.724Z,33.03
2018-12-22T00:47:50.704Z,33.83
2018-12-22T00:48:50.692Z,33.24
2018-12-22T00:49:50.681Z,33.83
2018-12-22T00:50:50.671Z,33.03
2018-12-22T00:51:50.659Z,33.93
2018-12-22T00:52:50.658Z,33.93
2018-12-22T00:53:50.637Z,33.83
2018-12-22T00:54:50.624Z,33.93
2018-12-22T00:55:50.615Z,33.93
2018-12-22T00:56:50.603Z,33.73
2018-12-22T00:57:50.659Z,33.93
2018-12-22T00:58:50.588Z,33.33
2018-12-22T00:59:50.570Z,33.73
2018-12-22T01:00:50.559Z,33.53
2018-12-22T01:01:50.591Z,33.62
2018-12-22T01:02:50.535Z,33.53
2018-12-22T01:03:50.525Z,33.53
2018-12-22T01:04:50.521Z,33.62
2018-12-22T01:05:50.505Z,33.53
2018-12-22T01:06:52.697Z,33.53
2018-12-22T01:07:50.482Z,33.53
2018-12-22T01:08:50.469Z,33.94
2018-12-22T01:09:50.457Z,33.53
2018-12-22T01:10:50.723Z,33.54
2018-12-22T01:11:50.437Z,33.73
2018-12-22T01:12:50.424Z,33.53
2018-12-22T01:13:50.416Z,33.62
2018-12-22T01:14:50.401Z,33.73
2018-12-22T01:15:50.391Z,33.53
2018-12-22T01:16:50.665Z,33.54
2018-12-22T01:17:50.366Z,33.53
2018-12-22T01:18:50.356Z,33.53
2018-12-22T01:19:50.347Z,33.53
2018-12-22T01:20:50.335Z,33.62
2018-12-22T01:21:50.322Z,33.73
2018-12-22T01:22:50.588Z,33.73
2018-12-22T01:23:50.299Z,33.53
2018-12-22T01:24:50.289Z,33.53
2018-12-22T01:25:50.277Z,33.73
2018-12-22T01:26:50.265Z,33.62
2018-12-22T01:27:50.254Z,33.54
2018-12-22T01:28:50.534Z,33.84
2018-12-22T01:29:50.237Z,33.53
2018-12-22T01:30:50.221Z,33.64
2018-12-22T01:31:50.210Z,33.54
2018-12-22T01:32:50.198Z,33.54
2018-12-22T01:33:50.189Z,33.73
2018-12-22T01:34:50.451Z,33.74
2018-12-22T01:35:50.166Z,33.94
2018-12-22T01:36:50.153Z,33.54
2018-12-22T01:37:50.142Z,33.73
2018-12-22T01:38:50.132Z,33.64
2018-12-22T01:39:50.121Z,34.12
2018-12-22T01:40:50.393Z,33.64
2018-12-22T01:41:50.098Z,34.14
2018-12-22T01:42:50.086Z,33.74
2018-12-22T01:43:50.078Z,33.73
2018-12-22T01:44:50.064Z,33.64
2018-12-22T01:45:50.052Z,33.93
2018-12-22T01:46:50.049Z,33.94
2018-12-22T01:47:50.030Z,33.94
2018-12-22T01:48:50.020Z,33.93
2018-12-22T01:49:50.009Z,34.03
2018-12-22T01:50:49.997Z,33.93
2018-12-22T01:51:49.985Z,33.73
2018-12-22T01:52:49.980Z,33.74
2018-12-22T01:53:49.962Z,33.83
2018-12-22T01:54:49.953Z,33.84
2018-12-22T01:55:49.940Z,33.83
2018-12-22T01:56:49.929Z,34.23
2018-12-22T01:57:49.920Z,33.23
2018-12-22T01:58:49.911Z,33.23
2018-12-22T01:59:49.895Z,33.94
2018-12-22T02:00:49.884Z,33.93
2018-12-22T02:01:49.872Z,33.03
2018-12-22T02:02:49.860Z,33.83
2018-12-22T02:03:49.852Z,33.03
2018-12-22T02:04:49.847Z,33.24
2018-12-22T02:05:49.827Z,34.23
2018-12-22T02:06:49.819Z,33.12
2018-12-22T02:07:49.805Z,33.03
2018-12-22T02:08:49.795Z,34.12
2018-12-22T02:09:49.782Z,34.23
2018-12-22T02:10:49.793Z,33.23
2018-12-22T02:11:49.759Z,33.83
2018-12-22T02:12:49.748Z,33.12
2018-12-22T02:13:49.738Z,33.03
2018-12-22T02:14:49.726Z,34.12
2018-12-22T02:15:49.715Z,33.34
2018-12-22T02:16:49.711Z,33.83
2018-12-22T02:17:49.692Z,33.23
2018-12-22T02:18:49.681Z,33.23
2018-12-22T02:19:49.672Z,33.03
2018-12-22T02:20:49.661Z,33.62
2018-12-22T02:21:49.647Z,33.03
2018-12-22T02:22:49.643Z,33.12
2018-12-22T02:23:49.624Z,33.44
2018-12-22T02:24:49.613Z,33.03
2018-12-22T02:25:49.603Z,33.03
2018-12-22T02:26:49.591Z,32.94
2018-12-22T02:27:49.580Z,32.93
2018-12-22T02:28:56.624Z,32.93
2018-12-22T02:29:50.557Z,32.93
2018-12-22T02:30:49.548Z,33.03
2018-12-22T02:31:49.536Z,33.33
2018-12-22T02:32:49.525Z,33.23
2018-12-22T02:33:49.513Z,33.12
2018-12-22T02:34:49.517Z,33.12
2018-12-22T02:35:49.491Z,33.03
2018-12-22T02:36:49.479Z,32.93
2018-12-22T02:37:49.467Z,32.94
2018-12-22T02:38:49.457Z,32.94
2018-12-22T02:39:49.448Z,33.03
2018-12-22T02:40:49.457Z,33.03
2018-12-22T02:41:49.423Z,33.03
2018-12-22T02:42:49.413Z,33.33
2018-12-22T02:43:49.400Z,33.33
2018-12-22T02:44:49.391Z,33.23
2018-12-22T02:45:49.377Z,33.53
2018-12-22T02:46:49.375Z,33.23
2018-12-22T02:47:49.357Z,33.33
2018-12-22T02:48:49.345Z,33.33
2018-12-22T02:49:49.332Z,33.62
2018-12-22T02:50:49.322Z,33.62
2018-12-22T02:51:49.312Z,33.62
2018-12-22T02:52:49.570Z,33.33
2018-12-22T02:53:49.292Z,33.33
2018-12-22T02:54:49.276Z,33.33
2018-12-22T02:55:49.266Z,33.53
2018-12-22T02:56:49.255Z,33.33
2018-12-22T02:57:49.244Z,33.12
2018-12-22T02:58:49.242Z,33.33
2018-12-22T02:59:49.226Z,33.53
2018-12-22T03:00:49.208Z,33.43
2018-12-22T03:01:49.197Z,33.03
2018-12-22T03:02:49.187Z,33.23
2018-12-22T03:03:49.176Z,33.03
2018-12-22T03:04:49.171Z,33.12
2018-12-22T03:05:49.155Z,33.33
2018-12-22T03:06:49.141Z,33.23
2018-12-22T03:07:49.131Z,33.03
2018-12-22T03:08:49.119Z,32.62
2018-12-22T03:09:49.109Z,32.93
2018-12-22T03:10:49.389Z,33.23
2018-12-22T03:11:49.087Z,32.93
2018-12-22T03:12:49.075Z,32.81
2018-12-22T03:13:49.066Z,32.93
2018-12-22T03:14:49.051Z,33.23
2018-12-22T03:15:49.042Z,32.82
2018-12-22T03:16:49.317Z,33.12
2018-12-22T03:17:49.021Z,33.12
2018-12-22T03:18:49.007Z,33.11
2018-12-22T03:19:48.999Z,33.01
2018-12-22T03:20:48.985Z,33.12
2018-12-22T03:21:48.973Z,33.03
2018-12-22T03:22:48.970Z,33.33
2018-12-22T03:23:48.951Z,33.01
2018-12-22T03:24:48.938Z,33.21
2018-12-22T03:25:48.934Z,33.01
2018-12-22T03:26:48.916Z,33.03
2018-12-22T03:27:48.906Z,33.01
2018-12-22T03:28:48.903Z,33.01
2018-12-22T03:29:48.883Z,33.01
2018-12-22T03:30:48.928Z,33.01
2018-12-22T03:31:48.861Z,33.43
2018-12-22T03:32:48.861Z,33.31
2018-12-22T03:33:48.839Z,32.11
2018-12-22T03:34:48.835Z,33.21
2018-12-22T03:35:48.817Z,33.41
2018-12-22T03:36:48.804Z,32.21
2018-12-22T03:37:48.793Z,32.11
2018-12-22T03:38:48.782Z,32.31
2018-12-22T03:39:48.771Z,32.21
2018-12-22T03:40:48.767Z,32.11
2018-12-22T03:41:48.749Z,32.21
2018-12-22T03:42:48.736Z,32.21
2018-12-22T03:43:48.725Z,32.11
2018-12-22T03:44:48.716Z,32.51
2018-12-22T03:45:48.705Z,32.21
2018-12-22T03:46:48.699Z,32.01
2018-12-22T03:47:48.681Z,32.51
2018-12-22T03:48:48.671Z,32.51
2018-12-22T03:49:48.660Z,32.51
2018-12-22T03:50:48.650Z,32.21
2018-12-22T03:51:48.638Z,32.51
2018-12-22T03:52:48.633Z,32.51
2018-12-22T03:53:48.614Z,32.71
2018-12-22T03:54:48.602Z,32.51
2018-12-22T03:55:48.591Z,32.51
2018-12-22T03:56:48.580Z,32.31
2018-12-22T03:57:48.571Z,32.21
2018-12-22T03:58:48.566Z,32.81
2018-12-22T03:59:48.550Z,32.51
2018-12-22T04:00:48.534Z,32.21
2018-12-22T04:01:48.523Z,32.41
2018-12-22T04:02:48.511Z,32.81
2018-12-22T04:03:48.500Z,32.31
2018-12-22T04:04:48.496Z,32.41
2018-12-22T04:05:48.480Z,32.31
2018-12-22T04:06:48.467Z,32.51
2018-12-22T04:07:48.458Z,32.71
2018-12-22T04:08:48.599Z,32.71
2018-12-22T04:09:48.433Z,32.71
2018-12-22T04:10:48.432Z,32.41
2018-12-22T04:11:48.417Z,32.71
2018-12-22T04:12:48.406Z,32.31
2018-12-22T04:13:48.388Z,32.41
2018-12-22T04:14:48.380Z,32.41
2018-12-22T04:15:48.367Z,32.31
2018-12-22T04:16:48.362Z,32.41
2018-12-22T04:17:48.343Z,32.31
2018-12-22T04:18:48.331Z,32.31
2018-12-22T04:19:48.319Z,32.31
2018-12-22T04:20:48.309Z,32.31
2018-12-22T04:21:48.298Z,32.31
2018-12-22T04:22:48.292Z,32.31
2018-12-22T04:23:48.274Z,32.41
2018-12-22T04:24:48.265Z,32.41
2018-12-22T04:25:48.253Z,32.21
2018-12-22T04:26:48.242Z,32.21
2018-12-22T04:27:48.243Z,32.31
2018-12-22T04:28:48.226Z,32.01
2018-12-22T04:29:48.211Z,32.11
2018-12-22T04:30:48.195Z,32.21
2018-12-22T04:31:50.689Z,32.11
2018-12-22T04:32:48.175Z,32.31
2018-12-22T04:33:48.164Z,32.01
2018-12-22T04:34:48.157Z,32.11
2018-12-22T04:35:48.139Z,32.11
2018-12-22T04:36:48.129Z,32.11
2018-12-22T04:37:48.116Z,32.31
2018-12-22T04:38:48.105Z,32.11
2018-12-22T04:39:48.095Z,32.31
2018-12-22T04:40:48.091Z,32.61
2018-12-22T04:41:48.073Z,32.31
2018-12-22T04:42:48.061Z,32.61
2018-12-22T04:43:48.051Z,32.71
2018-12-22T04:44:48.039Z,32.51
2018-12-22T04:45:48.030Z,32.61
2018-12-22T04:46:48.307Z,32.31
2018-12-22T04:47:48.004Z,32.51
2018-12-22T04:48:47.995Z,32.61
2018-12-22T04:49:47.982Z,32.51
2018-12-22T04:50:47.970Z,32.51
2018-12-22T04:51:47.959Z,32.51
2018-12-22T04:52:48.234Z,32.51
2018-12-22T04:53:47.939Z,32.41
2018-12-22T04:54:47.927Z,32.51
2018-12-22T04:55:47.916Z,32.51
2018-12-22T04:56:47.903Z,32.41
2018-12-22T04:57:47.893Z,32.31
2018-12-22T04:58:48.152Z,32.31
2018-12-22T04:59:47.873Z,32.31
2018-12-22T05:00:47.858Z,32.21
2018-12-22T05:01:47.851Z,32.21
2018-12-22T05:02:47.837Z,32.91
2018-12-22T05:03:47.826Z,32.81
2018-12-22T05:04:48.139Z,32.31
2018-12-22T05:05:47.802Z,32.81
2018-12-22T05:06:47.791Z,32.81
2018-12-22T05:07:47.781Z,32.91
2018-12-22T05:08:47.769Z,32.81
2018-12-22T05:09:47.758Z,32.91
2018-12-22T05:10:48.029Z,32.70
2018-12-22T05:11:47.735Z,32.81
2018-12-22T05:12:47.725Z,32.81
2018-12-22T05:13:47.714Z,32.51
2018-12-22T05:14:47.707Z,32.91
2018-12-22T05:15:47.689Z,33.01
2018-12-22T05:16:47.959Z,32.51
2018-12-22T05:17:47.667Z,32.81
2018-12-22T05:18:47.655Z,32.71
2018-12-22T05:19:47.645Z,32.81
2018-12-22T05:20:47.636Z,32.61
2018-12-22T05:21:47.621Z,32.71
2018-12-22T05:22:47.632Z,32.81
2018-12-22T05:23:47.600Z,32.91
2018-12-22T05:24:47.588Z,33.01
2018-12-22T05:25:47.576Z,32.61
2018-12-22T05:26:47.565Z,32.71
2018-12-22T05:27:47.555Z,32.71
2018-12-22T05:28:47.550Z,32.81
2018-12-22T05:29:51.719Z,32.91
2018-12-22T05:30:47.520Z,32.91
2018-12-22T05:31:47.509Z,32.91
2018-12-22T05:32:47.498Z,32.71
2018-12-22T05:33:47.487Z,32.91
2018-12-22T05:34:47.796Z,32.81
2018-12-22T05:35:47.466Z,32.91
2018-12-22T05:36:47.453Z,32.91
2018-12-22T05:37:47.441Z,32.91
2018-12-22T05:38:47.429Z,33.01
2018-12-22T05:39:47.420Z,33.01
2018-12-22T05:40:47.415Z,32.81
2018-12-22T05:41:47.395Z,33.01
2018-12-22T05:42:47.390Z,32.31
2018-12-22T05:43:47.376Z,32.81
2018-12-22T05:44:47.363Z,32.31
2018-12-22T05:45:47.351Z,32.71
2018-12-22T05:46:47.347Z,32.81
2018-12-22T05:47:47.332Z,32.61
2018-12-22T05:48:47.319Z,32.81
2018-12-22T05:49:47.306Z,32.31
2018-12-22T05:50:47.295Z,32.31
2018-12-22T05:51:47.285Z,32.31
2018-12-22T05:52:47.278Z,32.71
2018-12-22T05:53:47.262Z,32.61
2018-12-22T05:54:47.249Z,32.51
2018-12-22T05:55:47.238Z,32.51
2018-12-22T05:56:47.229Z,32.81
2018-12-22T05:57:47.216Z,32.21
2018-12-22T05:58:47.213Z,32.11
2018-12-22T05:59:47.195Z,32.11
2018-12-22T06:00:47.181Z,32.21
2018-12-22T06:01:47.172Z,32.31
2018-12-22T06:02:47.160Z,32.31
2018-12-22T06:03:47.149Z,32.51
2018-12-22T06:04:47.148Z,32.31
2018-12-22T06:05:47.126Z,32.51
2018-12-22T06:06:47.116Z,32.51
2018-12-22T06:07:47.104Z,32.51
2018-12-22T06:08:47.094Z,32.51
2018-12-22T06:09:47.081Z,32.31
2018-12-22T06:10:47.083Z,32.31
2018-12-22T06:11:47.061Z,32.21
2018-12-22T06:12:47.052Z,32.71
2018-12-22T06:13:47.037Z,32.51
2018-12-22T06:14:47.024Z,32.31
2018-12-22T06:15:47.016Z,32.31
2018-12-22T06:16:47.012Z,32.51
2018-12-22T06:17:46.993Z,31.51
2018-12-22T06:18:46.980Z,32.61
2018-12-22T06:19:46.970Z,32.91
2018-12-22T06:20:46.961Z,32.41
2018-12-22T06:21:46.947Z,32.31
2018-12-22T06:22:46.945Z,32.61
2018-12-22T06:23:46.925Z,32.51
2018-12-22T06:24:46.913Z,32.61
2018-12-22T06:25:46.903Z,32.61
2018-12-22T06:26:46.893Z,31.61
2018-12-22T06:27:46.880Z,32.51
2018-12-22T06:28:46.878Z,32.51
2018-12-22T06:29:46.857Z,32.51
2018-12-22T06:30:46.846Z,32.51
2018-12-22T06:31:46.834Z,32.61
2018-12-22T06:32:46.823Z,32.51
2018-12-22T06:33:46.812Z,32.51
2018-12-22T06:34:46.809Z,32.61
2018-12-22T06:35:46.789Z,32.51
2018-12-22T06:36:46.778Z,32.51
2018-12-22T06:37:46.766Z,31.81
2018-12-22T06:38:46.756Z,31.51
2018-12-22T06:39:46.744Z,31.81
2018-12-22T06:40:46.741Z,32.21
2018-12-22T06:41:46.722Z,31.81
2018-12-22T06:42:46.712Z,31.71
2018-12-22T06:43:46.701Z,31.81
2018-12-22T06:44:46.688Z,31.61
2018-12-22T06:45:46.680Z,31.81
2018-12-22T06:46:46.674Z,31.81
2018-12-22T06:47:46.655Z,31.81
2018-12-22T06:48:46.644Z,31.81
2018-12-22T06:49:46.632Z,32.21
2018-12-22T06:50:46.620Z,32.51
2018-12-22T06:51:46.610Z,31.71
2018-12-22T06:52:46.605Z,31.81
2018-12-22T06:53:46.590Z,31.61
2018-12-22T06:54:46.574Z,31.61
2018-12-22T06:55:46.564Z,31.31
2018-12-22T06:56:46.552Z,31.61
2018-12-22T06:57:46.541Z,31.51
2018-12-22T06:58:46.539Z,32.21
2018-12-22T06:59:46.519Z,31.61
2018-12-22T07:00:46.513Z,31.51
2018-12-22T07:01:46.498Z,31.71
2018-12-22T07:02:46.485Z,31.51
2018-12-22T07:03:46.475Z,31.51
2018-12-22T07:04:46.734Z,31.51
2018-12-22T07:05:46.451Z,31.51
2018-12-22T07:06:46.440Z,31.71
2018-12-22T07:07:46.430Z,31.51
2018-12-22T07:08:46.418Z,31.51
2018-12-22T07:09:46.407Z,31.41
2018-12-22T07:10:46.686Z,31.51
2018-12-22T07:11:46.385Z,31.51
2018-12-22T07:12:46.374Z,31.41
2018-12-22T07:13:46.361Z,31.31
2018-12-22T07:14:46.351Z,31.31
2018-12-22T07:15:46.446Z,31.31
2018-12-22T07:16:46.603Z,31.51
2018-12-22T07:17:46.317Z,31.51
2018-12-22T07:18:46.306Z,31.51
2018-12-22T07:19:46.294Z,31.51
2018-12-22T07:20:46.286Z,31.31
2018-12-22T07:21:46.272Z,31.31
2018-12-22T07:22:46.545Z,31.31
2018-12-22T07:23:46.253Z,31.31
2018-12-22T07:24:46.238Z,31.41
2018-12-22T07:25:46.228Z,31.71
2018-12-22T07:26:46.216Z,31.51
2018-12-22T07:27:46.205Z,31.51
2018-12-22T07:28:46.201Z,31.31
2018-12-22T07:29:46.185Z,31.51
2018-12-22T07:30:46.172Z,31.31
2018-12-22T07:31:46.159Z,31.51
2018-12-22T07:32:46.148Z,31.51
2018-12-22T07:33:46.137Z,31.51
2018-12-22T07:34:46.136Z,31.51
2018-12-22T07:35:46.115Z,31.51
2018-12-22T07:36:46.108Z,31.41
2018-12-22T07:37:46.094Z,31.71
2018-12-22T07:38:46.084Z,31.41
2018-12-22T07:39:46.069Z,31.81
2018-12-22T07:40:46.380Z,31.41
2018-12-22T07:41:46.047Z,31.51
2018-12-22T07:42:46.037Z,31.41
2018-12-22T07:43:46.025Z,31.71
2018-12-22T07:44:46.013Z,31.51
2018-12-22T07:45:46.003Z,31.51
2018-12-22T07:46:45.999Z,31.41
2018-12-22T07:47:45.979Z,31.71
2018-12-22T07:48:45.969Z,31.41
2018-12-22T07:49:45.958Z,31.51
2018-12-22T07:50:45.947Z,31.81
2018-12-22T07:51:45.934Z,31.51
2018-12-22T07:52:51.539Z,32.01
2018-12-22T07:53:46.914Z,31.51
2018-12-22T07:54:45.903Z,31.41
2018-12-22T07:55:45.890Z,31.41
2018-12-22T07:56:45.880Z,32.01
2018-12-22T07:57:45.869Z,31.41
2018-12-22T07:58:45.864Z,31.41
2018-12-22T07:59:45.847Z,31.41
2018-12-22T08:00:45.833Z,31.91
2018-12-22T08:01:45.823Z,31.41
2018-12-22T08:02:45.812Z,31.41
2018-12-22T08:03:45.803Z,31.41
2018-12-22T08:04:45.797Z,31.51
2018-12-22T08:05:45.780Z,32.01
2018-12-22T08:06:45.767Z,32.11
2018-12-22T08:07:45.755Z,31.41
2018-12-22T08:08:45.743Z,31.91
2018-12-22T08:09:45.733Z,32.01
2018-12-22T08:10:46.040Z,31.81
2018-12-22T08:11:45.711Z,32.21
2018-12-22T08:12:45.700Z,31.81
2018-12-22T08:13:45.690Z,31.41
2018-12-22T08:14:45.678Z,32.01
2018-12-22T08:15:45.665Z,31.41
2018-12-22T08:16:45.942Z,31.91
2018-12-22T08:17:45.643Z,31.91
2018-12-22T08:18:45.683Z,32.01
2018-12-22T08:19:45.620Z,31.31
2018-12-22T08:20:45.610Z,32.01
2018-12-22T08:21:45.597Z,31.91
2018-12-22T08:22:45.594Z,32.11
2018-12-22T08:23:45.576Z,31.41
2018-12-22T08:24:45.563Z,31.41
2018-12-22T08:25:45.554Z,32.11
2018-12-22T08:26:45.541Z,31.91
2018-12-22T08:27:45.530Z,31.91
2018-12-22T08:28:45.528Z,32.21
2018-12-22T08:29:45.511Z,32.11
2018-12-22T08:30:45.495Z,31.91
2018-12-22T08:31:45.485Z,32.11
2018-12-22T08:32:45.475Z,31.41
2018-12-22T08:33:45.463Z,31.41
2018-12-22T08:34:45.459Z,32.01
2018-12-22T08:35:45.442Z,31.81
2018-12-22T08:36:45.429Z,32.11
2018-12-22T08:37:45.418Z,31.51
2018-12-22T08:38:45.406Z,31.91
2018-12-22T08:39:45.395Z,31.91
2018-12-22T08:40:45.403Z,32.11
2018-12-22T08:41:45.372Z,32.11
2018-12-22T08:42:45.361Z,32.11
2018-12-22T08:43:45.351Z,32.11
2018-12-22T08:44:45.339Z,31.61
2018-12-22T08:45:45.330Z,32.11
2018-12-22T08:46:45.325Z,32.21
2018-12-22T08:47:45.305Z,32.01
2018-12-22T08:48:45.293Z,32.11
2018-12-22T08:49:45.284Z,31.81
2018-12-22T08:50:45.281Z,32.11
2018-12-22T08:51:45.260Z,31.41
2018-12-22T08:52:45.543Z,32.01
2018-12-22T08:53:45.237Z,32.11
2018-12-22T08:54:45.226Z,32.11
2018-12-22T08:55:45.215Z,32.11
2018-12-22T08:56:45.203Z,31.91
2018-12-22T08:57:45.193Z,32.01
2018-12-22T08:58:45.188Z,32.11
2018-12-22T08:59:45.169Z,32.11
2018-12-22T09:00:52.210Z,32.11
2018-12-22T09:01:46.147Z,32.11
2018-12-22T09:02:45.136Z,31.91
2018-12-22T09:03:45.127Z,32.11
2018-12-22T09:04:45.121Z,32.11
2018-12-22T09:05:45.103Z,32.11
2018-12-22T09:06:45.090Z,32.11
2018-12-22T09:07:45.079Z,32.11
2018-12-22T09:08:45.069Z,32.11
2018-12-22T09:09:45.059Z,31.81
2018-12-22T09:10:45.053Z,31.91
2018-12-22T09:11:45.038Z,32.11
2018-12-22T09:12:45.023Z,32.01
2018-12-22T09:13:45.012Z,32.11
2018-12-22T09:14:45.001Z,32.01
2018-12-22T09:15:44.990Z,32.11
2018-12-22T09:16:45.272Z,32.11
2018-12-22T09:17:44.969Z,32.01
2018-12-22T09:18:44.956Z,31.91
2018-12-22T09:19:44.945Z,31.91
2018-12-22T09:20:44.934Z,31.91
2018-12-22T09:21:44.922Z,31.91
2018-12-22T09:22:45.197Z,31.91
2018-12-22T09:23:44.899Z,31.91
2018-12-22T09:24:44.888Z,32.11
2018-12-22T09:25:44.876Z,31.91
2018-12-22T09:26:44.867Z,32.11
2018-12-22T09:27:44.856Z,32.11
2018-12-22T09:28:44.854Z,31.91
2018-12-22T09:29:44.831Z,32.11
2018-12-22T09:30:44.822Z,32.11
2018-12-22T09:31:44.810Z,32.01
2018-12-22T09:32:44.802Z,31.91
2018-12-22T09:33:44.786Z,32.11
2018-12-22T09:34:44.781Z,32.11
2018-12-22T09:35:44.764Z,32.11
2018-12-22T09:36:44.752Z,31.91
2018-12-22T09:37:44.744Z,31.91
2018-12-22T09:38:44.730Z,32.01
2018-12-22T09:39:44.719Z,31.91
2018-12-22T09:40:44.716Z,32.11
2018-12-22T09:41:44.698Z,32.11
2018-12-22T09:42:44.685Z,32.11
2018-12-22T09:43:44.673Z,31.81
2018-12-22T09:44:44.663Z,31.91
2018-12-22T09:45:44.651Z,31.91
2018-12-22T09:46:44.647Z,32.11
2018-12-22T09:47:44.629Z,31.81
2018-12-22T09:48:44.617Z,31.71
2018-12-22T09:49:44.607Z,32.11
2018-12-22T09:50:44.597Z,32.11
2018-12-22T09:51:44.588Z,31.91
2018-12-22T09:52:44.581Z,31.91
2018-12-22T09:53:44.561Z,31.81
2018-12-22T09:54:44.552Z,31.91
2018-12-22T09:55:44.541Z,32.11
2018-12-22T09:56:44.527Z,31.71
2018-12-22T09:57:44.517Z,32.11
2018-12-22T09:58:44.823Z,32.11
2018-12-22T09:59:44.496Z,31.71
2018-12-22T10:00:44.483Z,31.81
2018-12-22T10:01:44.475Z,31.81
2018-12-22T10:02:44.461Z,31.90
2018-12-22T10:03:44.449Z,32.11
2018-12-22T10:04:44.714Z,32.11
2018-12-22T10:05:44.427Z,31.91
2018-12-22T10:06:44.414Z,32.11
2018-12-22T10:07:44.405Z,31.81
2018-12-22T10:08:44.395Z,31.81
2018-12-22T10:09:44.382Z,31.81
2018-12-22T10:10:44.642Z,31.91
2018-12-22T10:11:44.359Z,31.91
2018-12-22T10:12:44.349Z,31.81
2018-12-22T10:13:44.335Z,32.11
2018-12-22T10:14:44.324Z,31.81
2018-12-22T10:15:44.317Z,31.81
2018-12-22T10:16:44.590Z,31.81
2018-12-22T10:17:44.291Z,31.81
2018-12-22T10:18:44.284Z,32.11
2018-12-22T10:19:44.269Z,31.71
2018-12-22T10:20:44.258Z,31.71
2018-12-22T10:21:44.246Z,31.81
2018-12-22T10:22:44.523Z,31.81
2018-12-22T10:23:44.222Z,31.81
2018-12-22T10:24:44.214Z,31.81
2018-12-22T10:25:44.200Z,31.71
2018-12-22T10:26:44.189Z,31.81
2018-12-22T10:27:44.178Z,31.71
2018-12-22T10:28:44.173Z,32.41
2018-12-22T10:29:44.156Z,31.71
2018-12-22T10:30:44.144Z,31.71
2018-12-22T10:31:44.133Z,31.81
2018-12-22T10:32:44.121Z,31.91
2018-12-22T10:33:44.111Z,31.71
2018-12-22T10:34:44.427Z,31.71
2018-12-22T10:35:44.090Z,31.91
2018-12-22T10:36:44.076Z,31.71
2018-12-22T10:37:44.066Z,31.91
2018-12-22T10:38:44.054Z,31.81
2018-12-22T10:39:44.044Z,31.91
2018-12-22T10:40:44.292Z,31.91
2018-12-22T10:41:44.021Z,31.71
2018-12-22T10:42:44.009Z,31.51
2018-12-22T10:43:43.998Z,32.31
2018-12-22T10:44:43.988Z,32.31
2018-12-22T10:45:43.976Z,31.81
2018-12-22T10:46:44.241Z,32.31
2018-12-22T10:47:43.956Z,32.21
2018-12-22T10:48:43.942Z,32.31
2018-12-22T10:49:43.931Z,32.31
2018-12-22T10:50:43.927Z,32.21
2018-12-22T10:51:43.909Z,32.31
2018-12-22T10:52:43.919Z,32.21
2018-12-22T10:53:43.886Z,32.21
2018-12-22T10:54:43.874Z,32.31
2018-12-22T10:55:43.864Z,32.31
2018-12-22T10:56:43.852Z,32.21
2018-12-22T10:57:43.841Z,32.31
2018-12-22T10:58:43.838Z,32.21
2018-12-22T10:59:43.818Z,32.31
2018-12-22T11:00:43.807Z,32.21
2018-12-22T11:01:43.795Z,32.31
2018-12-22T11:02:43.785Z,32.31
2018-12-22T11:03:43.773Z,31.91
2018-12-22T11:04:44.056Z,32.01
2018-12-22T11:05:43.751Z,32.11
2018-12-22T11:06:43.740Z,32.01
2018-12-22T11:07:43.743Z,31.91
2018-12-22T11:08:43.717Z,31.91
2018-12-22T11:09:43.707Z,31.61
2018-12-22T11:10:43.995Z,31.91
2018-12-22T11:11:43.683Z,32.11
2018-12-22T11:12:43.672Z,31.81
2018-12-22T11:13:43.661Z,31.51
2018-12-22T11:14:43.651Z,31.81
2018-12-22T11:15:43.640Z,31.91
2018-12-22T11:16:43.635Z,32.01
2018-12-22T11:17:43.616Z,31.91
2018-12-22T11:18:43.606Z,32.21
2018-12-22T11:19:43.595Z,31.51
2018-12-22T11:20:43.582Z,31.70
2018-12-22T11:21:43.570Z,31.71
2018-12-22T11:22:43.570Z,31.71
2018-12-22T11:23:43.547Z,32.21
2018-12-22T11:24:43.537Z,32.21
2018-12-22T11:25:43.527Z,31.71
2018-12-22T11:26:43.514Z,31.90
2018-12-22T11:27:43.502Z,31.81
2018-12-22T11:28:43.777Z,32.21
2018-12-22T11:29:43.479Z,31.71
2018-12-22T11:30:43.469Z,31.70
2018-12-22T11:31:43.459Z,32.21
2018-12-22T11:32:43.447Z,31.91
2018-12-22T11:33:43.438Z,32.21
2018-12-22T11:34:43.711Z,32.21
2018-12-22T11:35:43.413Z,32.20
2018-12-22T11:36:43.402Z,31.91
2018-12-22T11:37:43.392Z,31.81
2018-12-22T11:38:43.379Z,31.91
2018-12-22T11:39:43.368Z,31.91
2018-12-22T11:40:43.368Z,31.91
2018-12-22T11:41:43.346Z,32.09
2018-12-22T11:42:47.608Z,31.70
2018-12-22T11:43:43.324Z,31.90
2018-12-22T11:44:43.314Z,31.70
2018-12-22T11:45:43.302Z,31.70
2018-12-22T11:46:43.298Z,31.70
2018-12-22T11:47:43.278Z,31.59
2018-12-22T11:48:43.267Z,31.90
2018-12-22T11:49:43.255Z,31.59
2018-12-22T11:50:43.252Z,32.09
2018-12-22T11:51:43.235Z,32.29
2018-12-22T11:52:43.482Z,32.09
2018-12-22T11:53:43.211Z,32.09
2018-12-22T11:54:43.200Z,32.20
2018-12-22T11:55:43.188Z,32.29
2018-12-22T11:56:43.177Z,32.29
2018-12-22T11:57:43.166Z,32.29
2018-12-22T11:58:43.168Z,32.29
2018-12-22T11:59:43.144Z,32.29
2018-12-22T12:00:43.133Z,32.09
2018-12-22T12:01:43.628Z,32.29
2018-12-22T12:02:43.110Z,31.99
2018-12-22T12:03:43.099Z,32.01
2018-12-22T12:04:43.097Z,32.09
2018-12-22T12:05:43.078Z,32.29
2018-12-22T12:06:43.066Z,32.31
2018-12-22T12:07:43.054Z,32.11
2018-12-22T12:08:43.043Z,32.09
2018-12-22T12:09:43.031Z,32.20
2018-12-22T12:10:43.029Z,32.09
2018-12-22T12:11:43.009Z,32.09
2018-12-22T12:12:42.997Z,32.09
2018-12-22T12:13:43.010Z,32.20
2018-12-22T12:14:42.977Z,31.99
2018-12-22T12:15:42.967Z,31.99
2018-12-22T12:16:43.225Z,31.99
2018-12-22T12:17:42.940Z,32.09
2018-12-22T12:18:42.931Z,32.09
2018-12-22T12:19:42.974Z,32.09
2018-12-22T12:20:42.906Z,32.29
2018-12-22T12:21:42.895Z,32.09
2018-12-22T12:22:43.170Z,32.29
2018-12-22T12:23:42.874Z,31.99
2018-12-22T12:24:42.863Z,32.09
2018-12-22T12:25:42.850Z,31.99
2018-12-22T12:26:42.839Z,32.09
2018-12-22T12:27:42.828Z,32.09
2018-12-22T12:28:43.105Z,32.09
2018-12-22T12:29:42.806Z,31.70
2018-12-22T12:30:42.797Z,32.09
2018-12-22T12:31:42.787Z,31.99
2018-12-22T12:32:42.772Z,32.09
2018-12-22T12:33:42.760Z,32.11
2018-12-22T12:34:42.756Z,32.01
2018-12-22T12:35:42.738Z,32.11
2018-12-22T12:36:42.728Z,31.49
2018-12-22T12:37:42.718Z,32.09
2018-12-22T12:38:42.706Z,31.99
2018-12-22T12:39:42.693Z,32.09
2018-12-22T12:40:43.032Z,32.09
2018-12-22T12:41:42.670Z,32.09
2018-12-22T12:42:42.662Z,32.01
2018-12-22T12:43:42.649Z,31.79
2018-12-22T12:44:42.638Z,31.99
2018-12-22T12:45:42.635Z,32.09
2018-12-22T12:46:42.899Z,31.99
2018-12-22T12:47:42.604Z,31.99
2018-12-22T12:48:42.593Z,31.99
2018-12-22T12:49:42.582Z,32.09
2018-12-22T12:50:42.570Z,32.09
2018-12-22T12:51:42.561Z,31.99
2018-12-22T12:52:42.554Z,31.20